Time,TemperatureF,DewpointF,PressureIn,WindDirection,WindDirectionDegrees,WindSpeedMPH,WindSpeedGustMPH,Humidity,HourlyPrecipIn,Conditions,Clouds,dailyrainin,SolarRadiationWatts/m^2,SoftwareType,DateUTC
2013-01-30 00:08:00,72.3,65.0,30.11,East,98,5.0,8.0,78,0.00,,,0.00,0,weatherlink.com 1.10,2013-01-30 05:08:00,
2013-01-30 00:23:00,72.5,65.0,30.11,South,174,3.0,11.0,76,0.00,,,0.00,0,weatherlink.com 1.10,2013-01-30 05:23:00,
2013-01-30 00:38:00,72.4,64.0,30.10,ESE,118,3.0,7.0,76,0.00,,,0.00,0,weatherlink.com 1.10,2013-01-30 05:38:00,
2013-01-30 00:53:00,72.4,65.0,30.09,ESE,111,5.0,12.0,77,0.00,,,0.00,0,weatherlink.com 1.10,2013-01-30 05:53:00,
2013-01-30 01:08:00,72.3,64.0,30.10,ESE,105,2.0,8.0,76,0.00,,,0.00,0,weatherlink.com 1.10,2013-01-30 06:08:00,
2013-01-30 01:23:00,72.3,64.0,30.10,ESE,122,2.0,10.0,76,0.00,,,0.00,0,weatherlink.com 1.10,2013-01-30 06:23:00,
2013-01-30 01:38:00,72.3,65.0,30.10,ESE,123,4.0,10.0,77,0.00,,,0.00,0,weatherlink.com 1.10,2013-01-30 06:38:00,
2013-01-30 01:53:00,72.2,65.0,30.10,ESE,115,2.0,5.0,77,0.00,,,0.00,0,weatherlink.com 1.10,2013-01-30 06:53:00,
2013-01-30 02:08:00,72.1,64.0,30.10,SE,134,1.0,8.0,76,0.00,,,0.00,0,weatherlink.com 1.10,2013-01-30 07:08:00,
2013-01-30 02:23:00,72.1,65.0,30.09,ESE,115,3.0,10.0,77,0.00,,,0.00,0,weatherlink.com 1.10,2013-01-30 07:23:00,
2013-01-30 02:38:00,72.1,65.0,30.09,ESE,121,2.0,9.0,77,0.00,,,0.00,0,weatherlink.com 1.10,2013-01-30 07:38:00,
2013-01-30 02:53:00,72.1,65.0,30.09,ESE,122,2.0,11.0,77,0.00,,,0.00,0,weatherlink.com 1.10,2013-01-30 07:53:00,
2013-01-30 03:08:00,72.1,65.0,30.09,SE,134,1.0,8.0,77,0.00,,,0.00,0,weatherlink.com 1.10,2013-01-30 08:08:00,
2013-01-30 03:23:00,72.1,64.0,30.09,East,101,3.0,8.0,76,0.00,,,0.00,0,weatherlink.com 1.10,2013-01-30 08:23:00,
2013-01-30 03:38:00,72.1,64.0,30.09,ESE,116,1.0,9.0,76,0.00,,,0.00,0,weatherlink.com 1.10,2013-01-30 08:38:00,
2013-01-30 03:54:00,72.0,64.0,30.09,SE,136,2.0,8.0,77,0.00,,,0.00,0,weatherlink.com 1.10,2013-01-30 08:54:00,
2013-01-30 04:09:00,72.0,64.0,30.08,ENE,74,5.0,8.0,77,0.00,,,0.00,0,weatherlink.com 1.10,2013-01-30 09:09:00,
2013-01-30 04:23:00,71.9,65.0,30.08,ESE,123,3.0,8.0,78,0.00,,,0.00,0,weatherlink.com 1.10,2013-01-30 09:23:00,
2013-01-30 04:38:00,71.9,64.0,30.07,ESE,120,3.0,10.0,77,0.00,,,0.00,0,weatherlink.com 1.10,2013-01-30 09:38:00,
2013-01-30 04:53:00,71.8,64.0,30.07,ESE,123,7.0,9.0,77,0.00,,,0.00,0,weatherlink.com 1.10,2013-01-30 09:53:00,
2013-01-30 05:09:00,71.5,64.0,30.07,ESE,117,2.0,5.0,77,0.00,,,0.00,0,weatherlink.com 1.10,2013-01-30 10:09:00,
2013-01-30 05:23:00,71.6,64.0,30.06,ESE,116,3.0,8.0,77,0.00,,,0.00,0,weatherlink.com 1.10,2013-01-30 10:23:00,
2013-01-30 05:39:00,71.4,64.0,30.07,South,179,5.0,6.0,77,0.00,,,0.00,0,weatherlink.com 1.10,2013-01-30 10:39:00,
2013-01-30 05:53:00,71.3,64.0,30.07,SE,137,2.0,7.0,77,0.00,,,0.00,0,weatherlink.com 1.10,2013-01-30 10:53:00,
2013-01-30 06:09:00,71.1,64.0,30.08,ESE,118,3.0,7.0,77,0.00,,,0.00,0,weatherlink.com 1.10,2013-01-30 11:09:00,
2013-01-30 06:24:00,71.3,64.0,30.08,ESE,111,0.0,4.0,77,0.00,,,0.00,0,weatherlink.com 1.10,2013-01-30 11:24:00,
2013-01-30 06:39:00,71.2,64.0,30.09,South,182,1.0,5.0,78,0.00,,,0.00,0,weatherlink.com 1.10,2013-01-30 11:39:00,
2013-01-30 06:54:00,70.8,64.0,30.09,SE,128,0.0,6.0,79,0.00,,,0.00,0,weatherlink.com 1.10,2013-01-30 11:54:00,
2013-01-30 07:09:00,70.9,64.0,30.09,East,101,3.0,6.0,78,0.00,,,0.00,5,weatherlink.com 1.10,2013-01-30 12:09:00,
2013-01-30 07:24:00,71.0,63.0,30.09,ESE,112,1.0,5.0,77,0.00,,,0.00,19,weatherlink.com 1.10,2013-01-30 12:24:00,
2013-01-30 07:39:00,72.0,64.0,30.09,SE,133,3.0,11.0,75,0.00,,,0.00,54,weatherlink.com 1.10,2013-01-30 12:39:00,
2013-01-30 07:54:00,72.7,64.0,30.09,ESE,115,8.0,11.0,74,0.00,,,0.00,109,weatherlink.com 1.10,2013-01-30 12:54:00,
2013-01-30 08:09:00,73.5,65.0,30.08,ESE,111,2.0,9.0,74,0.00,,,0.00,167,weatherlink.com 1.10,2013-01-30 13:09:00,
2013-01-30 08:24:00,73.7,65.0,30.09,SE,138,4.0,11.0,73,0.00,,,0.00,70,weatherlink.com 1.10,2013-01-30 13:24:00,
2013-01-30 08:39:00,73.8,65.0,30.09,SE,137,1.0,8.0,73,0.00,,,0.00,267,weatherlink.com 1.10,2013-01-30 13:39:00,
2013-01-30 08:54:00,75.0,65.0,30.09,ESE,121,2.0,9.0,71,0.00,,,0.00,359,weatherlink.com 1.10,2013-01-30 13:54:00,
2013-01-30 09:09:00,75.5,65.0,30.09,SE,126,4.0,11.0,70,0.00,,,0.00,380,weatherlink.com 1.10,2013-01-30 14:09:00,
2013-01-30 09:24:00,75.8,65.0,30.09,SE,135,6.0,11.0,70,0.00,,,0.00,439,weatherlink.com 1.10,2013-01-30 14:24:00,
2013-01-30 09:39:00,75.7,65.0,30.09,ESE,121,4.0,14.0,69,0.00,,,0.00,483,weatherlink.com 1.10,2013-01-30 14:39:00,
2013-01-30 09:54:00,75.4,65.0,30.09,SE,146,2.0,12.0,70,0.00,,,0.00,185,weatherlink.com 1.10,2013-01-30 14:54:00,
2013-01-30 10:09:00,75.0,65.0,30.09,ESE,115,7.0,11.0,72,0.00,,,0.00,207,weatherlink.com 1.10,2013-01-30 15:09:00,
2013-01-30 10:24:00,76.5,66.0,30.08,ESE,114,4.0,13.0,71,0.00,,,0.00,621,weatherlink.com 1.10,2013-01-30 15:24:00,
2013-01-30 10:40:00,76.5,66.0,30.07,ESE,107,12.0,14.0,69,0.00,,,0.00,621,weatherlink.com 1.10,2013-01-30 15:40:00,
2013-01-30 10:54:00,76.9,66.0,30.06,ESE,123,8.0,13.0,70,0.00,,,0.00,673,weatherlink.com 1.10,2013-01-30 15:54:00,
2013-01-30 11:09:00,77.7,66.0,30.06,NE,46,3.0,12.0,68,0.00,,,0.00,680,weatherlink.com 1.10,2013-01-30 16:09:00,
2013-01-30 11:24:00,76.6,65.0,30.06,SE,126,6.0,15.0,68,0.00,,,0.00,362,weatherlink.com 1.10,2013-01-30 16:24:00,
2013-01-30 11:39:00,78.2,66.0,30.05,SSE,152,5.0,11.0,66,0.00,,,0.00,714,weatherlink.com 1.10,2013-01-30 16:39:00,
2013-01-30 11:55:00,77.4,66.0,30.04,SE,142,5.0,14.0,69,0.00,,,0.00,926,weatherlink.com 1.10,2013-01-30 16:55:00,
2013-01-30 12:09:00,76.7,67.0,30.02,SE,126,6.0,16.0,71,0.00,,,0.00,304,weatherlink.com 1.10,2013-01-30 17:09:00,
2013-01-30 12:25:00,76.7,67.0,30.01,ENE,77,10.0,19.0,71,0.00,,,0.00,858,weatherlink.com 1.10,2013-01-30 17:25:00,
2013-01-30 12:40:00,77.8,67.0,30.00,South,176,3.0,17.0,69,0.00,,,0.00,404,weatherlink.com 1.10,2013-01-30 17:40:00,
2013-01-30 12:55:00,77.7,67.0,29.99,South,181,4.0,15.0,70,0.00,,,0.00,346,weatherlink.com 1.10,2013-01-30 17:55:00,
2013-01-30 13:10:00,77.2,67.0,29.99,SSE,157,4.0,15.0,70,0.00,,,0.00,383,weatherlink.com 1.10,2013-01-30 18:10:00,
2013-01-30 13:25:00,76.6,67.0,29.98,SE,133,9.0,14.0,72,0.00,,,0.00,264,weatherlink.com 1.10,2013-01-30 18:25:00,
2013-01-30 13:40:00,77.2,68.0,29.97,ESE,120,5.0,13.0,72,0.00,,,0.00,396,weatherlink.com 1.10,2013-01-30 18:40:00,
2013-01-30 13:55:00,77.3,67.0,29.97,ESE,123,8.0,15.0,71,0.00,,,0.00,742,weatherlink.com 1.10,2013-01-30 18:55:00,
2013-01-30 14:10:00,77.0,67.0,29.97,ESE,122,8.0,12.0,72,0.00,,,0.00,306,weatherlink.com 1.10,2013-01-30 19:10:00,
2013-01-30 14:25:00,77.1,68.0,29.96,East,101,9.0,12.0,73,0.00,,,0.00,348,weatherlink.com 1.10,2013-01-30 19:25:00,
2013-01-30 14:40:00,77.3,68.0,29.96,ESE,109,2.0,12.0,73,0.00,,,0.00,246,weatherlink.com 1.10,2013-01-30 19:40:00,
2013-01-30 14:55:00,77.7,68.0,29.97,SSE,156,11.0,12.0,72,0.00,,,0.00,193,weatherlink.com 1.10,2013-01-30 19:55:00,
2013-01-30 15:10:00,77.8,67.0,29.98,SSW,212,1.0,10.0,70,0.00,,,0.00,693,weatherlink.com 1.10,2013-01-30 20:10:00,
2013-01-30 15:25:00,77.5,68.0,29.98,SE,132,5.0,8.0,72,0.00,,,0.00,192,weatherlink.com 1.10,2013-01-30 20:25:00,
2013-01-30 15:40:00,78.1,68.0,29.99,SE,142,4.0,9.0,70,0.00,,,0.00,278,weatherlink.com 1.10,2013-01-30 20:40:00,
2013-01-30 15:55:00,78.4,67.0,29.99,SE,136,3.0,9.0,69,0.00,,,0.00,151,weatherlink.com 1.10,2013-01-30 20:55:00,
2013-01-30 16:10:00,77.9,67.0,29.99,South,177,2.0,9.0,68,0.00,,,0.00,146,weatherlink.com 1.10,2013-01-30 21:10:00,
2013-01-30 16:25:00,77.9,67.0,30.00,South,171,1.0,7.0,68,0.00,,,0.00,281,weatherlink.com 1.10,2013-01-30 21:25:00,
2013-01-30 16:55:00,77.7,66.0,30.00,SE,136,1.0,6.0,68,0.00,,,0.00,46,weatherlink.com 1.10,2013-01-30 21:55:00,
2013-01-30 17:10:00,77.4,66.0,29.99,South,182,5.0,7.0,69,0.00,,,0.00,53,weatherlink.com 1.10,2013-01-30 22:10:00,
2013-01-30 17:25:00,77.2,66.0,29.98,SSE,167,0.0,7.0,68,0.00,,,0.00,26,weatherlink.com 1.10,2013-01-30 22:25:00,
2013-01-30 17:40:00,76.6,66.0,29.98,East,84,1.0,5.0,69,0.00,,,0.00,18,weatherlink.com 1.10,2013-01-30 22:40:00,
2013-01-30 17:55:00,76.1,66.0,29.97,ESE,105,1.0,6.0,72,0.00,,,0.00,9,weatherlink.com 1.10,2013-01-30 22:55:00,
2013-01-30 18:10:00,75.3,67.0,29.97,South,177,3.0,8.0,74,0.00,,,0.00,0,weatherlink.com 1.10,2013-01-30 23:10:00,
2013-01-30 18:25:00,74.8,66.0,29.97,ESE,115,1.0,5.0,75,0.00,,,0.00,0,weatherlink.com 1.10,2013-01-30 23:25:00,
2013-01-30 18:40:00,74.4,67.0,29.98,SE,130,0.0,3.0,77,0.00,,,0.00,0,weatherlink.com 1.10,2013-01-30 23:40:00,
2013-01-30 18:55:00,74.0,67.0,29.98,South,179,1.0,3.0,78,0.00,,,0.00,0,weatherlink.com 1.10,2013-01-30 23:55:00,
2013-01-30 19:10:00,73.6,67.0,29.98,SSW,192,1.0,4.0,79,0.00,,,0.00,0,weatherlink.com 1.10,2013-01-31 00:10:00,
2013-01-30 19:25:00,73.2,67.0,29.98,South,171,1.0,3.0,80,0.00,,,0.00,0,weatherlink.com 1.10,2013-01-31 00:25:00,
2013-01-30 19:40:00,72.8,66.0,29.98,South,171,0.0,2.0,80,0.00,,,0.00,0,weatherlink.com 1.10,2013-01-31 00:40:00,
2013-01-30 19:55:00,72.3,67.0,29.98,South,171,1.0,2.0,82,0.00,,,0.00,0,weatherlink.com 1.10,2013-01-31 00:55:00,
2013-01-30 20:10:00,71.8,66.0,29.98,South,171,0.0,1.0,82,0.00,,,0.00,0,weatherlink.com 1.10,2013-01-31 01:10:00,
2013-01-30 20:25:00,71.5,66.0,29.98,South,178,1.0,2.0,83,0.00,,,0.00,0,weatherlink.com 1.10,2013-01-31 01:25:00,
2013-01-30 20:40:00,71.3,66.0,29.98,South,188,0.0,2.0,84,0.00,,,0.00,0,weatherlink.com 1.10,2013-01-31 01:40:00,
2013-01-30 20:55:00,71.1,66.0,29.99,South,172,0.0,3.0,84,0.00,,,0.00,0,weatherlink.com 1.10,2013-01-31 01:55:00,
2013-01-30 21:10:00,70.9,66.0,29.99,South,172,0.0,2.0,85,0.00,,,0.00,0,weatherlink.com 1.10,2013-01-31 02:10:00,
2013-01-30 21:25:00,70.6,66.0,29.99,South,173,0.0,1.0,85,0.00,,,0.00,0,weatherlink.com 1.10,2013-01-31 02:25:00,
2013-01-30 21:40:00,70.4,66.0,30.00,South,173,0.0,0.0,86,0.00,,,0.00,0,weatherlink.com 1.10,2013-01-31 02:40:00,
2013-01-30 21:55:00,70.2,66.0,29.99,South,173,0.0,1.0,87,0.00,,,0.00,0,weatherlink.com 1.10,2013-01-31 02:55:00,
2013-01-30 22:11:00,70.1,66.0,30.00,South,173,0.0,2.0,87,0.00,,,0.00,0,weatherlink.com 1.10,2013-01-31 03:11:00,
2013-01-30 22:25:00,70.3,67.0,29.99,SSW,211,0.0,2.0,88,0.00,,,0.00,0,weatherlink.com 1.10,2013-01-31 03:25:00,
2013-01-30 22:40:00,70.4,67.0,29.99,SSW,192,0.0,2.0,88,0.00,,,0.00,0,weatherlink.com 1.10,2013-01-31 03:40:00,
2013-01-30 22:55:00,70.4,67.0,29.98,SW,217,1.0,5.0,88,0.00,,,0.00,0,weatherlink.com 1.10,2013-01-31 03:55:00,
2013-01-30 23:10:00,70.6,67.0,29.99,South,191,1.0,3.0,88,0.00,,,0.00,0,weatherlink.com 1.10,2013-01-31 04:10:00,
2013-01-30 23:25:00,70.8,67.0,29.98,SSE,165,1.0,4.0,88,0.00,,,0.00,0,weatherlink.com 1.10,2013-01-31 04:25:00,
2013-01-30 23:40:00,70.7,67.0,29.98,South,178,0.0,3.0,88,0.00,,,0.00,0,weatherlink.com 1.10,2013-01-31 04:40:00,
2013-01-30 23:56:00,70.7,67.0,29.99,SSW,198,0.0,4.0,88,0.00,,,0.00,0,weatherlink.com 1.10,2013-01-31 04:56:00,